createdAt,value
2018-02-21T00:00:04.328Z,57.80
2018-02-21T00:02:33.394Z,54.93
2018-02-21T00:05:01.752Z,51.77
2018-02-21T00:07:30.039Z,50.27
2018-02-21T00:09:59.245Z,55.37
2018-02-21T00:12:27.506Z,53.20
2018-02-21T00:14:55.764Z,54.53
2018-02-21T00:17:24.787Z,52.53
2018-02-21T00:19:53.051Z,57.53
2018-02-21T00:22:21.300Z,48.73
2018-02-21T00:24:50.601Z,49.23
2018-02-21T00:27:19.594Z,53.47
2018-02-21T00:29:49.825Z,55.37
2018-02-21T00:32:18.847Z,53.30
2018-02-21T00:34:47.147Z,54.70
2018-02-21T00:37:15.397Z,61.77
2018-02-21T00:39:43.783Z,68.97
2018-02-21T00:42:12.129Z,74.27
2018-02-21T00:44:40.578Z,68.80
2018-02-21T00:47:08.808Z,73.97
2018-02-21T00:49:37.040Z,61.63
2018-02-21T00:52:05.357Z,61.87
2018-02-21T00:54:33.662Z,66.20
2018-02-21T00:57:01.981Z,72.87
2018-02-21T00:59:30.552Z,69.00
2018-02-21T01:01:59.589Z,64.30
2018-02-21T01:04:28.105Z,68.77
2018-02-21T01:06:56.592Z,62.40
2018-02-21T01:09:25.692Z,62.87
2018-02-21T01:11:54.010Z,63.43
2018-02-21T01:14:22.298Z,61.00
2018-02-21T01:16:50.716Z,60.43
2018-02-21T01:19:18.984Z,69.47
2018-02-21T01:21:47.236Z,58.83
2018-02-21T01:24:15.538Z,65.53
2018-02-21T01:26:43.942Z,59.93
2018-02-21T01:29:12.256Z,58.80
2018-02-21T01:31:40.685Z,64.30
2018-02-21T01:34:09.998Z,74.30
2018-02-21T01:36:38.265Z,91.97
2018-02-21T01:39:07.395Z,85.87
2018-02-21T01:41:36.418Z,71.07
2018-02-21T01:44:04.939Z,63.00
2018-02-21T01:46:33.752Z,58.57
2018-02-21T01:49:02.769Z,60.83
2018-02-21T01:51:31.757Z,61.37
2018-02-21T01:54:00.099Z,56.53
2018-02-21T01:56:28.393Z,61.30
2018-02-21T01:58:57.531Z,56.53
2018-02-21T02:01:25.793Z,58.03
2018-02-21T02:03:53.998Z,58.47
2018-02-21T02:06:22.237Z,55.93
2018-02-21T02:08:50.634Z,60.60
2018-02-21T02:11:18.837Z,68.80
2018-02-21T02:13:47.133Z,69.60
2018-02-21T02:16:16.104Z,70.63
2018-02-21T02:18:44.398Z,66.47
2018-02-21T02:21:12.678Z,66.33
2018-02-21T02:23:40.925Z,65.17
2018-02-21T02:26:10.073Z,72.47
2018-02-21T02:28:38.327Z,72.40
2018-02-21T02:31:07.337Z,72.40
2018-02-21T02:33:35.699Z,67.20
2018-02-21T02:36:03.948Z,69.10
2018-02-21T02:38:41.311Z,67.87
2018-02-21T02:41:10.116Z,70.00
2018-02-21T02:43:38.356Z,65.10
2018-02-21T02:46:06.858Z,62.00
2018-02-21T02:48:35.684Z,59.93
2018-02-21T02:51:04.201Z,63.80
2018-02-21T02:53:33.252Z,69.37
2018-02-21T02:56:01.553Z,70.43
2018-02-21T02:58:29.845Z,78.40
2018-02-21T03:00:58.316Z,69.37
2018-02-21T03:03:26.552Z,64.73
2018-02-21T03:05:54.819Z,67.07
2018-02-21T03:08:24.038Z,67.50
2018-02-21T03:10:52.488Z,72.87
2018-02-21T03:13:20.786Z,74.80
2018-02-21T03:15:49.049Z,79.63
2018-02-21T03:18:18.235Z,74.53
2018-02-21T03:20:46.449Z,73.90
2018-02-21T03:23:15.461Z,80.17
2018-02-21T03:25:44.317Z,79.60
2018-02-21T03:28:13.645Z,89.27
2018-02-21T03:30:42.015Z,111.43
2018-02-21T03:33:11.009Z,98.40
2018-02-21T03:35:39.343Z,91.17
2018-02-21T03:38:07.635Z,90.27
2018-02-21T03:40:35.930Z,85.00
2018-02-21T03:43:04.221Z,85.13
2018-02-21T03:45:32.491Z,79.33
2018-02-21T03:48:00.929Z,76.23
2018-02-21T03:50:29.183Z,77.03
2018-02-21T03:52:57.583Z,82.03
2018-02-21T03:55:25.856Z,69.87
2018-02-21T03:57:54.148Z,77.33
2018-02-21T04:00:23.200Z,78.63
2018-02-21T04:02:51.444Z,74.33
2018-02-21T04:05:19.789Z,75.87
2018-02-21T04:07:48.050Z,79.77
2018-02-21T04:10:16.298Z,79.07
2018-02-21T04:12:45.351Z,76.97
2018-02-21T04:15:13.634Z,80.17
2018-02-21T04:17:41.959Z,78.00
2018-02-21T04:20:10.378Z,75.57
2018-02-21T04:22:38.639Z,73.80
2018-02-21T04:25:07.063Z,72.40
2018-02-21T04:27:35.330Z,75.63
2018-02-21T04:30:04.404Z,75.13
2018-02-21T04:32:35.110Z,83.90
2018-02-21T04:35:05.275Z,69.53
2018-02-21T04:37:37.113Z,74.97
2018-02-21T04:40:08.218Z,85.83
2018-02-21T04:42:39.019Z,80.87
2018-02-21T04:45:12.084Z,74.77
2018-02-21T04:47:42.006Z,73.30
2018-02-21T04:50:10.506Z,70.20
2018-02-21T04:52:38.865Z,66.73
2018-02-21T04:58:12.385Z,62.83
2018-02-21T05:00:41.512Z,71.07
2018-02-21T05:03:11.313Z,67.20
2018-02-21T05:05:39.669Z,70.50
2018-02-21T05:08:08.057Z,73.10
2018-02-21T05:10:36.409Z,72.47
2018-02-21T05:13:04.700Z,65.57
2018-02-21T05:15:33.818Z,67.57
2018-02-21T05:18:02.738Z,74.70
2018-02-21T05:20:31.919Z,81.77
2018-02-21T05:23:00.292Z,72.63
2018-02-21T05:25:28.535Z,69.23
2018-02-21T05:27:56.825Z,78.60
2018-02-21T05:30:25.178Z,75.17
2018-02-21T05:32:53.583Z,74.80
2018-02-21T05:35:21.848Z,72.03
2018-02-21T05:37:50.085Z,78.00
2018-02-21T05:40:18.422Z,72.30
2018-02-21T05:42:46.669Z,76.97
2018-02-21T05:45:15.795Z,87.07
2018-02-21T05:47:44.185Z,73.73
2018-02-21T05:50:12.441Z,80.40
2018-02-21T05:52:40.667Z,71.80
2018-02-21T05:55:08.951Z,73.87
2018-02-21T05:57:38.354Z,78.10
2018-02-21T06:00:07.414Z,73.77
2018-02-21T06:02:35.750Z,74.13
2018-02-21T06:05:04.753Z,76.33
2018-02-21T06:07:33.011Z,72.67
2018-02-21T06:10:01.279Z,72.63
2018-02-21T06:12:30.456Z,70.47
2018-02-21T06:14:58.722Z,68.93
2018-02-21T06:17:27.206Z,77.10
2018-02-21T06:19:55.519Z,73.07
2018-02-21T06:22:23.824Z,68.17
2018-02-21T06:24:52.130Z,77.33
2018-02-21T06:27:20.600Z,71.67
2018-02-21T06:29:48.834Z,72.57
2018-02-21T06:32:17.870Z,67.27
2018-02-21T06:34:52.320Z,74.60
2018-02-21T06:37:20.905Z,71.53
2018-02-21T06:39:49.222Z,74.63
2018-02-21T06:42:17.665Z,63.77
2018-02-21T06:44:46.456Z,65.00
2018-02-21T06:47:14.806Z,66.40
2018-02-21T06:49:43.307Z,70.50
2018-02-21T06:52:11.800Z,59.43
2018-02-21T06:54:40.137Z,74.30
2018-02-21T06:57:08.545Z,69.77
2018-02-21T06:59:37.977Z,70.13
2018-02-21T07:02:06.316Z,67.90
2018-02-21T07:04:34.617Z,67.70
2018-02-21T07:07:03.681Z,119.67
2018-02-21T07:09:32.099Z,85.70
2018-02-21T07:12:00.372Z,73.17
2018-02-21T07:14:30.184Z,65.23
2018-02-21T07:16:58.546Z,67.07
2018-02-21T07:19:26.934Z,72.40
2018-02-21T07:21:55.429Z,72.87
2018-02-21T07:24:23.730Z,76.17
2018-02-21T07:26:52.769Z,76.03
2018-02-21T07:29:21.034Z,77.53
2018-02-21T07:31:49.443Z,66.23
2018-02-21T07:34:17.705Z,70.70
2018-02-21T07:36:45.951Z,74.87
2018-02-21T07:39:14.247Z,69.97
2018-02-21T07:41:42.643Z,72.27
2018-02-21T07:44:10.954Z,76.40
2018-02-21T07:46:39.307Z,70.00
2018-02-21T07:49:07.568Z,70.17
2018-02-21T07:51:35.861Z,74.50
2018-02-21T07:54:04.915Z,73.67
2018-02-21T07:56:34.234Z,66.63
2018-02-21T07:59:02.495Z,66.90
2018-02-21T08:01:30.916Z,63.90
2018-02-21T08:03:59.206Z,64.27
2018-02-21T08:06:29.719Z,68.03
2018-02-21T08:08:58.007Z,64.50
2018-02-21T08:11:26.385Z,66.53
2018-02-21T08:13:54.672Z,63.70
2018-02-21T08:16:23.140Z,67.13
2018-02-21T08:18:51.519Z,65.93
2018-02-21T08:21:19.883Z,69.10
2018-02-21T08:23:48.267Z,63.07
2018-02-21T08:26:16.528Z,66.53
2018-02-21T08:28:44.923Z,64.40
2018-02-21T08:31:13.409Z,66.50
2018-02-21T08:33:41.679Z,64.27
2018-02-21T08:36:10.170Z,63.27
2018-02-21T08:38:38.630Z,67.77
2018-02-21T08:41:07.028Z,63.37
2018-02-21T08:43:35.277Z,66.90
2018-02-21T08:46:03.558Z,63.87
2018-02-21T08:48:32.382Z,70.07
2018-02-21T08:51:00.657Z,58.97
2018-02-21T08:53:28.952Z,63.23
2018-02-21T08:55:57.402Z,64.07
2018-02-21T08:58:25.797Z,62.00
2018-02-21T09:00:54.153Z,59.80
2018-02-21T09:03:26.441Z,61.37
2018-02-21T09:05:54.719Z,66.60
2018-02-21T09:08:22.999Z,60.93
2018-02-21T09:10:51.440Z,58.70
2018-02-21T09:13:19.784Z,59.97
2018-02-21T09:15:48.884Z,60.87
2018-02-21T09:18:17.227Z,65.33
2018-02-21T09:20:45.639Z,62.43
2018-02-21T09:23:14.694Z,65.07
2018-02-21T09:25:42.943Z,60.23
2018-02-21T09:28:11.946Z,60.77
2018-02-21T09:30:40.235Z,60.33
2018-02-21T09:33:08.835Z,62.03
2018-02-21T09:35:37.370Z,59.03
2018-02-21T09:38:05.699Z,63.17
2018-02-21T09:40:34.112Z,64.97
2018-02-21T09:43:03.491Z,65.77
2018-02-21T09:45:32.523Z,61.47
2018-02-21T09:48:00.767Z,58.63
2018-02-21T09:50:29.063Z,58.13
2018-02-21T09:52:58.255Z,58.97
2018-02-21T09:55:27.309Z,62.00
2018-02-21T09:57:56.054Z,58.90
2018-02-21T10:00:24.410Z,58.63
2018-02-21T10:02:52.669Z,58.23
2018-02-21T10:05:20.945Z,58.50
2018-02-21T10:07:50.147Z,57.57
2018-02-21T10:10:18.418Z,56.67
2018-02-21T10:12:46.900Z,59.80
2018-02-21T10:15:15.294Z,65.57
2018-02-21T10:17:43.566Z,59.20
2018-02-21T10:20:12.559Z,59.27
2018-02-21T10:22:40.952Z,59.13
2018-02-21T10:25:10.155Z,58.03
2018-02-21T10:27:38.611Z,59.57
2018-02-21T10:30:07.835Z,55.93
2018-02-21T10:32:36.422Z,58.53
2018-02-21T10:35:04.944Z,60.63
2018-02-21T10:37:34.374Z,55.63
2018-02-21T10:40:02.634Z,53.90
2018-02-21T10:42:31.647Z,59.63
2018-02-21T10:44:59.931Z,57.67
2018-02-21T10:47:28.313Z,59.73
2018-02-21T10:49:57.033Z,51.80
2018-02-21T10:52:25.306Z,59.00
2018-02-21T10:54:55.157Z,61.40
2018-02-21T10:57:23.593Z,57.30
2018-02-21T10:59:51.982Z,57.63
2018-02-21T11:02:21.253Z,57.47
2018-02-21T11:04:49.560Z,58.97
2018-02-21T11:07:18.656Z,62.27
2018-02-21T11:09:46.917Z,56.73
2018-02-21T11:12:15.195Z,58.57
2018-02-21T11:14:44.278Z,51.30
2018-02-21T11:17:12.665Z,56.07
2018-02-21T11:19:41.079Z,55.37
2018-02-21T11:22:09.464Z,55.97
2018-02-21T11:24:37.713Z,54.97
2018-02-21T11:27:06.017Z,59.57
2018-02-21T11:29:35.296Z,54.50
2018-02-21T11:32:04.593Z,54.93
2018-02-21T11:34:32.951Z,53.93
2018-02-21T11:37:01.243Z,61.47
2018-02-21T11:39:29.722Z,60.97
2018-02-21T11:41:58.116Z,56.00
2018-02-21T11:44:27.322Z,62.53
2018-02-21T11:46:55.859Z,59.40
2018-02-21T11:49:24.118Z,60.47
2018-02-21T11:51:53.108Z,63.80
2018-02-21T11:54:22.147Z,58.37
2018-02-21T11:56:50.559Z,53.83
2018-02-21T11:59:20.368Z,53.60
2018-02-21T12:01:48.600Z,63.83
2018-02-21T12:04:16.904Z,55.77
2018-02-21T12:06:45.272Z,56.63
2018-02-21T12:09:13.538Z,55.33
2018-02-21T12:11:41.867Z,52.47
2018-02-21T12:14:10.936Z,52.30
2018-02-21T12:16:41.140Z,51.67
2018-02-21T12:19:09.589Z,51.53
2018-02-21T12:21:38.430Z,50.03
2018-02-21T12:24:06.721Z,51.37
2018-02-21T12:26:35.943Z,53.97
2018-02-21T12:29:04.919Z,53.77
2018-02-21T12:31:33.209Z,54.00
2018-02-21T12:34:03.079Z,50.97
2018-02-21T12:36:32.015Z,50.10
2018-02-21T12:39:06.203Z,54.03
2018-02-21T12:41:40.368Z,53.17
2018-02-21T12:44:08.651Z,52.77
2018-02-21T12:46:38.016Z,52.77
2018-02-21T12:49:07.130Z,53.40
2018-02-21T12:51:35.432Z,51.83
2018-02-21T12:54:03.960Z,55.17
2018-02-21T12:56:32.368Z,56.67
2018-02-21T12:59:01.433Z,54.73
2018-02-21T13:01:29.841Z,53.33
2018-02-21T13:03:58.085Z,56.57
2018-02-21T13:06:26.447Z,53.83
2018-02-21T13:08:54.718Z,58.93
2018-02-21T13:11:23.027Z,55.43
2018-02-21T13:13:52.045Z,51.60
2018-02-21T13:16:20.383Z,53.40
2018-02-21T13:18:48.764Z,53.80
2018-02-21T13:21:17.129Z,51.40
2018-02-21T13:23:45.417Z,53.50
2018-02-21T13:26:13.622Z,51.97
2018-02-21T13:28:42.174Z,48.90
2018-02-21T13:31:11.275Z,50.60
2018-02-21T13:33:39.574Z,48.97
2018-02-21T13:36:07.914Z,49.43
2018-02-21T13:38:36.264Z,49.93
2018-02-21T13:41:04.793Z,49.83
2018-02-21T13:43:33.044Z,51.37
2018-02-21T13:46:01.263Z,49.93
2018-02-21T13:48:29.514Z,52.77
2018-02-21T13:50:57.906Z,50.10
2018-02-21T13:53:26.157Z,42.43
2018-02-21T13:55:54.380Z,44.10
2018-02-21T13:58:22.722Z,51.40
2018-02-21T14:00:51.075Z,46.30
2018-02-21T14:03:19.490Z,45.97
2018-02-21T14:05:47.747Z,45.43
2018-02-21T14:08:15.996Z,42.60
2018-02-21T14:10:44.393Z,47.60
2018-02-21T14:13:13.388Z,45.53
2018-02-21T14:15:42.652Z,42.97
2018-02-21T14:18:10.997Z,44.10
2018-02-21T14:20:39.404Z,45.47
2018-02-21T14:23:08.783Z,47.00
2018-02-21T14:25:37.625Z,45.20
2018-02-21T14:28:06.637Z,46.90
2018-02-21T14:30:34.961Z,40.37
2018-02-21T14:33:03.213Z,41.57
2018-02-21T14:35:31.805Z,46.00
2018-02-21T14:38:00.315Z,49.53
2018-02-21T14:40:28.604Z,50.87
2018-02-21T14:42:57.777Z,49.13
2018-02-21T14:45:26.036Z,50.50
2018-02-21T14:47:54.265Z,46.53
2018-02-21T14:50:23.313Z,47.27
2018-02-21T14:52:51.596Z,47.27
2018-02-21T14:55:19.857Z,46.47
2018-02-21T14:57:48.348Z,41.07
2018-02-21T15:00:17.436Z,43.63
2018-02-21T15:02:45.769Z,45.27
2018-02-21T15:05:14.790Z,43.73
2018-02-21T15:07:43.798Z,45.27
2018-02-21T15:10:12.199Z,43.13
2018-02-21T15:12:41.497Z,44.90
2018-02-21T15:15:09.761Z,43.57
2018-02-21T15:17:38.256Z,41.97
2018-02-21T15:20:06.535Z,41.47
2018-02-21T15:22:34.829Z,38.73
2018-02-21T15:25:03.306Z,41.83
2018-02-21T15:27:31.578Z,43.90
2018-02-21T15:29:59.948Z,42.37
2018-02-21T15:32:29.553Z,46.10
2018-02-21T15:34:57.936Z,44.33
2018-02-21T15:37:26.182Z,43.07
2018-02-21T15:39:55.541Z,43.07
2018-02-21T15:42:23.790Z,45.27
2018-02-21T15:44:52.025Z,44.13
2018-02-21T15:47:20.352Z,43.87
2018-02-21T15:49:48.935Z,43.33
2018-02-21T15:52:17.653Z,42.23
2018-02-21T15:54:46.137Z,44.63
2018-02-21T15:57:15.543Z,45.87
2018-02-21T15:59:44.101Z,45.70
2018-02-21T16:02:13.494Z,46.43
2018-02-21T16:04:42.596Z,48.27
2018-02-21T16:07:10.838Z,48.70
2018-02-21T16:09:39.263Z,47.40
2018-02-21T16:12:07.534Z,45.77
2018-02-21T16:14:36.633Z,48.63
2018-02-21T16:17:04.889Z,47.23
2018-02-21T16:19:33.357Z,46.73
2018-02-21T16:22:01.981Z,45.93
2018-02-21T16:24:31.769Z,45.53
2018-02-21T16:27:02.430Z,47.73
2018-02-21T16:29:32.604Z,47.23
2018-02-21T16:32:02.785Z,47.17
2018-02-21T16:34:34.343Z,53.23
2018-02-21T16:37:06.827Z,48.17
2018-02-21T16:39:38.576Z,54.13
2018-02-21T16:42:07.632Z,50.17
2018-02-21T16:44:38.446Z,60.87
2018-02-21T16:47:08.095Z,53.03
2018-02-21T16:49:37.197Z,55.60
2018-02-21T16:52:06.839Z,52.13
2018-02-21T16:54:35.659Z,52.70
2018-02-21T16:57:04.792Z,53.67
2018-02-21T16:59:33.986Z,53.43
2018-02-21T17:02:02.358Z,53.00
2018-02-21T17:04:30.731Z,55.13
2018-02-21T17:06:59.334Z,56.77
2018-02-21T17:09:27.610Z,64.17
2018-02-21T17:11:56.901Z,72.40
2018-02-21T17:14:25.395Z,65.77
2018-02-21T17:16:53.640Z,61.80
2018-02-21T17:19:21.909Z,61.20
2018-02-21T17:21:50.882Z,55.73
2018-02-21T17:24:19.233Z,59.07
2018-02-21T17:26:47.593Z,56.37
2018-02-21T17:29:15.984Z,65.47
2018-02-21T17:31:44.253Z,62.57
2018-02-21T17:34:13.191Z,71.70
2018-02-21T17:36:42.376Z,61.50
2018-02-21T17:39:11.507Z,63.17
2018-02-21T17:41:40.648Z,63.03
2018-02-21T17:44:08.941Z,60.30
2018-02-21T17:46:37.957Z,61.30
2018-02-21T17:49:06.519Z,64.77
2018-02-21T17:51:34.829Z,66.47
2018-02-21T17:54:04.807Z,67.37
2018-02-21T17:56:33.041Z,70.83
2018-02-21T17:59:01.455Z,66.80
2018-02-21T18:01:29.714Z,68.40
2018-02-21T18:03:57.947Z,69.13
2018-02-21T18:06:27.128Z,67.70
2018-02-21T18:08:55.353Z,72.83
2018-02-21T18:11:23.915Z,74.23
2018-02-21T18:13:52.274Z,66.07
2018-02-21T18:16:20.525Z,74.53
2018-02-21T18:18:48.773Z,68.03
2018-02-21T18:21:22.717Z,68.90
2018-02-21T18:23:50.974Z,68.23
2018-02-21T18:26:19.229Z,81.33
2018-02-21T18:28:47.557Z,95.73
2018-02-21T18:31:15.879Z,90.83
2018-02-21T18:33:44.205Z,78.53
2018-02-21T18:36:12.640Z,83.97
2018-02-21T18:38:40.912Z,72.63
2018-02-21T18:41:09.912Z,84.17
2018-02-21T18:43:38.226Z,80.30
2018-02-21T18:46:06.481Z,81.47
2018-02-21T18:48:35.456Z,88.07
2018-02-21T18:51:03.706Z,86.60
2018-02-21T18:53:31.964Z,84.07
2018-02-21T18:56:00.172Z,84.07
2018-02-21T18:58:29.434Z,78.43
2018-02-21T19:00:57.800Z,79.03
2018-02-21T19:03:26.141Z,83.43
2018-02-21T19:05:55.299Z,85.13
2018-02-21T19:08:23.527Z,88.27
2018-02-21T19:10:51.836Z,83.03
2018-02-21T19:13:20.194Z,84.27
2018-02-21T19:15:48.491Z,81.00
2018-02-21T19:18:17.275Z,84.47
2018-02-21T19:20:45.659Z,82.40
2018-02-21T19:23:13.905Z,87.00
2018-02-21T19:25:42.182Z,74.87
2018-02-21T19:28:10.427Z,85.93
2018-02-21T19:30:40.065Z,84.27
2018-02-21T19:33:10.123Z,85.13
2018-02-21T19:35:38.341Z,87.43
2018-02-21T19:38:07.491Z,80.17
2018-02-21T19:40:35.824Z,76.80
2018-02-21T19:43:04.940Z,83.63
2018-02-21T19:45:33.151Z,76.50
2018-02-21T19:48:01.383Z,83.93
2018-02-21T19:50:29.899Z,71.40
2018-02-21T19:52:59.051Z,65.93
2018-02-21T19:55:28.055Z,70.10
2018-02-21T19:57:57.203Z,60.30
2018-02-21T20:00:26.332Z,55.63
2018-02-21T20:02:55.694Z,50.70
2018-02-21T20:05:23.985Z,53.13
2018-02-21T20:07:52.224Z,48.40
2018-02-21T20:10:20.442Z,46.23
2018-02-21T20:12:48.679Z,51.83
2018-02-21T20:15:16.998Z,46.40
2018-02-21T20:17:45.274Z,46.63
2018-02-21T20:20:16.243Z,47.17
2018-02-21T20:22:45.407Z,47.33
2018-02-21T20:25:13.808Z,46.90
2018-02-21T20:27:42.108Z,45.70
2018-02-21T20:30:11.271Z,43.37
2018-02-21T20:32:40.457Z,51.00
2018-02-21T20:35:09.728Z,45.13
2018-02-21T20:37:38.610Z,48.90
2018-02-21T20:40:07.682Z,43.83
2018-02-21T20:42:36.687Z,46.37
2018-02-21T20:45:05.102Z,46.47
2018-02-21T20:47:33.389Z,46.47
2018-02-21T20:50:01.671Z,47.87
2018-02-21T20:52:30.035Z,44.47
2018-02-21T20:54:58.295Z,49.97
2018-02-21T20:57:26.526Z,50.77
2018-02-21T20:59:55.117Z,49.83
2018-02-21T21:02:24.905Z,47.23
2018-02-21T21:04:53.158Z,51.53
2018-02-21T21:07:21.491Z,49.60
2018-02-21T21:09:50.563Z,48.87
2018-02-21T21:12:19.649Z,46.63
2018-02-21T21:14:47.898Z,47.20
2018-02-21T21:17:16.125Z,45.40
2018-02-21T21:19:46.752Z,48.13
2018-02-21T21:22:16.144Z,45.63
2018-02-21T21:24:44.508Z,49.77
2018-02-21T21:27:12.773Z,47.73
2018-02-21T21:29:41.066Z,49.70
2018-02-21T21:32:09.311Z,50.57
2018-02-21T21:34:37.823Z,47.90
2018-02-21T21:37:06.347Z,47.93
2018-02-21T21:39:35.536Z,43.27
2018-02-21T21:42:04.602Z,50.03
2018-02-21T21:44:32.978Z,48.07
2018-02-21T21:47:01.919Z,47.33
2018-02-21T21:49:32.869Z,47.27
2018-02-21T21:51:59.346Z,45.37
2018-02-21T21:54:27.604Z,45.63
2018-02-21T21:56:55.897Z,46.80
2018-02-21T21:59:24.141Z,48.73
2018-02-21T22:01:52.680Z,46.50
2018-02-21T22:04:20.900Z,48.93
2018-02-21T22:06:49.166Z,48.97
2018-02-21T22:09:18.948Z,44.83
2018-02-21T22:11:48.736Z,50.23
2018-02-21T22:14:17.124Z,47.60
2018-02-21T22:16:45.422Z,46.23
2018-02-21T22:19:13.893Z,46.13
2018-02-21T22:21:42.365Z,48.20
2018-02-21T22:24:10.785Z,49.17
2018-02-21T22:26:39.076Z,45.50
2018-02-21T22:29:08.073Z,56.87
2018-02-21T22:31:36.728Z,50.47
2018-02-21T22:34:06.096Z,45.50
2018-02-21T22:36:35.079Z,46.00
2018-02-21T22:39:03.389Z,45.73
2018-02-21T22:41:31.650Z,46.03
2018-02-21T22:43:59.882Z,47.67
2018-02-21T22:46:29.028Z,52.13
2018-02-21T22:48:57.295Z,47.83
2018-02-21T22:51:25.907Z,46.03
2018-02-21T22:53:55.090Z,47.27
2018-02-21T22:56:23.668Z,48.13
2018-02-21T22:58:52.156Z,49.73
2018-02-21T23:01:20.391Z,47.50
2018-02-21T23:03:49.896Z,47.83
2018-02-21T23:06:18.151Z,48.30
2018-02-21T23:08:47.157Z,50.20
2018-02-21T23:11:16.174Z,50.63
2018-02-21T23:13:45.667Z,51.73
2018-02-21T23:16:14.055Z,52.60
2018-02-21T23:18:43.159Z,50.07
2018-02-21T23:21:11.560Z,50.43
2018-02-21T23:23:40.249Z,48.57
2018-02-21T23:26:09.328Z,49.90
2018-02-21T23:28:37.557Z,50.03
2018-02-21T23:31:06.618Z,49.73
2018-02-21T23:33:35.254Z,53.53
2018-02-21T23:36:04.369Z,47.43
2018-02-21T23:38:32.619Z,53.27
2018-02-21T23:41:00.954Z,47.37
2018-02-21T23:43:29.243Z,46.07
2018-02-21T23:45:57.611Z,43.03
2018-02-21T23:48:26.226Z,51.13
2018-02-21T23:50:54.503Z,46.00
2018-02-21T23:53:23.653Z,44.70
2018-02-21T23:55:52.053Z,47.40
2018-02-21T23:58:20.331Z,46.53
